Terminal Aerodrome Forecast
Issued by NWS Portland, ME

Home | Current Version | Previous Version | Text Only | Print | Product List | Glossary On
Versions: 1 2 3 4 5 6 7 8 9 10 11 12 13 14 15 16 17 18 19 20 21 22 23 24 25 26 27 28
000
FTUS41 KGYX 240208 AAA
TAFPWM
TAF AMD
KPWM 240208Z 2402/2424 19008KT P6SM SKC WS010/22045KT
     FM240400 23003KT P6SM SCT250
     FM241500 06007KT P6SM FEW090 SCT250
     FM241700 11008KT P6SM FEW050 SCT250=

USA.gov is the U.S. government's official web portal to all federal, state and local government web resources and services.